< < Back
Terminal Aerodrome Forecast


Current Version              Previous Versions:   1  2  3  4  5  6  7  8  9  

Terminal Aerodrome Forecast

348
FTUS44 KMOB 262320
TAFMOB
TAF
KMOB 262320Z 2700/2724 21008KT P6SM FEW100 SCT200
     FM270200 VRB03KT P6SM FEW050 SCT200
     FM271500 31003KT P6SM SKC
     FM271800 24005KT P6SM VCTS SCT030CB=



Latest METAR

476
SAUS80 KWBC 270200 CCA
MTRMOB
METAR KMOB 270156Z 00000KT 10SM TS FEW030CB SCT250 28/24 A3006 RMK AO2
TSB38 SLP175 OCNL LTGICCC NW-NE TS NW-NE MOV NE T02830239


USA.gov is the U.S. government's official web portal to all federal, state and local government web resources and services.